createdAt,value
2017-02-16T00:00:43.450Z,0
2017-02-16T00:01:44.217Z,0
2017-02-16T00:02:44.988Z,0
2017-02-16T00:03:45.679Z,0
2017-02-16T00:04:46.419Z,0
2017-02-16T00:05:47.198Z,0
2017-02-16T00:06:47.982Z,0
2017-02-16T00:07:48.713Z,0
2017-02-16T00:08:49.452Z,0
2017-02-16T00:09:50.208Z,0
2017-02-16T00:10:50.927Z,0
2017-02-16T00:11:51.659Z,0
2017-02-16T00:12:52.371Z,0
2017-02-16T00:13:53.078Z,0
2017-02-16T00:14:53.801Z,0
2017-02-16T00:15:54.584Z,0
2017-02-16T00:16:55.357Z,0
2017-02-16T00:17:56.052Z,0
2017-02-16T00:18:56.798Z,0
2017-02-16T00:19:57.520Z,0
2017-02-16T00:20:58.361Z,0
2017-02-16T00:21:59.082Z,0
2017-02-16T00:22:59.886Z,0
2017-02-16T00:24:00.587Z,0
2017-02-16T00:25:01.304Z,0
2017-02-16T00:26:02.004Z,0
2017-02-16T00:27:02.716Z,0
2017-02-16T00:28:03.450Z,0
2017-02-16T00:29:04.195Z,0
2017-02-16T00:30:04.906Z,0
2017-02-16T00:31:05.623Z,0
2017-02-16T00:32:06.312Z,0
2017-02-16T00:33:07.021Z,0
2017-02-16T00:34:07.740Z,0
2017-02-16T00:35:08.434Z,0
2017-02-16T00:36:09.146Z,0
2017-02-16T00:37:09.850Z,0
2017-02-16T00:38:10.546Z,0
2017-02-16T00:39:11.308Z,0
2017-02-16T00:40:12.069Z,0
2017-02-16T00:41:12.761Z,0
2017-02-16T00:42:13.488Z,0
2017-02-16T00:43:14.207Z,0
2017-02-16T00:44:14.944Z,0
2017-02-16T00:45:15.743Z,0
2017-02-16T00:46:16.442Z,0
2017-02-16T00:47:17.167Z,0
2017-02-16T00:48:17.946Z,0
2017-02-16T00:49:18.628Z,0
2017-02-16T00:50:19.336Z,0
2017-02-16T00:51:20.029Z,0
2017-02-16T00:52:20.749Z,0
2017-02-16T00:53:21.482Z,0
2017-02-16T00:54:22.175Z,0
2017-02-16T00:55:22.899Z,0
2017-02-16T00:56:23.598Z,0
2017-02-16T00:57:24.310Z,0
2017-02-16T00:58:25.043Z,0
2017-02-16T00:59:25.767Z,0
2017-02-16T01:00:26.481Z,0
2017-02-16T01:01:27.188Z,0
2017-02-16T01:02:27.866Z,0
2017-02-16T01:03:28.589Z,0
2017-02-16T01:04:29.323Z,0
2017-02-16T01:05:30.040Z,0
2017-02-16T01:06:30.760Z,0
2017-02-16T01:07:31.473Z,0
2017-02-16T01:08:32.157Z,0
2017-02-16T01:09:32.907Z,0
2017-02-16T01:10:33.656Z,0
2017-02-16T01:11:34.400Z,0
2017-02-16T01:12:35.120Z,0
2017-02-16T01:13:35.828Z,0
2017-02-16T01:14:36.566Z,0
2017-02-16T01:15:37.259Z,0
2017-02-16T01:16:38.002Z,0
2017-02-16T01:17:38.715Z,0
2017-02-16T01:18:39.444Z,0
2017-02-16T01:19:40.147Z,0
2017-02-16T01:20:40.872Z,0
2017-02-16T01:21:41.621Z,0
2017-02-16T01:22:42.329Z,0
2017-02-16T01:23:43.006Z,0
2017-02-16T01:24:43.719Z,0
2017-02-16T01:25:44.446Z,0
2017-02-16T01:26:45.181Z,0
2017-02-16T01:27:45.885Z,0
2017-02-16T01:28:46.617Z,0
2017-02-16T01:29:47.323Z,0
2017-02-16T01:30:48.028Z,0
2017-02-16T01:31:48.799Z,0
2017-02-16T01:32:49.582Z,0
2017-02-16T01:33:50.302Z,0
2017-02-16T01:34:51.031Z,0
2017-02-16T01:35:51.743Z,0
2017-02-16T01:36:52.467Z,0
2017-02-16T01:37:53.169Z,0
2017-02-16T01:38:53.875Z,0
2017-02-16T01:39:54.585Z,0
2017-02-16T01:40:55.302Z,0
2017-02-16T01:41:56.009Z,0
2017-02-16T01:42:56.719Z,0
2017-02-16T01:43:57.432Z,0
2017-02-16T01:44:58.150Z,0
2017-02-16T01:45:58.882Z,0
2017-02-16T01:46:59.599Z,0
2017-02-16T01:48:00.296Z,0
2017-02-16T01:49:01.024Z,0
2017-02-16T01:50:01.763Z,0
2017-02-16T01:51:02.485Z,0
2017-02-16T01:52:03.160Z,0
2017-02-16T01:53:03.871Z,0
2017-02-16T01:54:04.559Z,0
2017-02-16T01:55:05.266Z,0
2017-02-16T01:56:05.954Z,0
2017-02-16T01:57:06.678Z,0
2017-02-16T01:58:07.379Z,0
2017-02-16T01:59:08.094Z,0
2017-02-16T02:00:08.797Z,0
2017-02-16T02:01:09.536Z,0
2017-02-16T02:02:10.253Z,0
2017-02-16T02:03:10.960Z,0
2017-02-16T02:04:11.659Z,0
2017-02-16T02:05:12.363Z,0
2017-02-16T02:06:13.079Z,0
2017-02-16T02:07:13.761Z,0
2017-02-16T02:08:14.478Z,0
2017-02-16T02:09:15.171Z,0
2017-02-16T02:10:15.885Z,0
2017-02-16T02:11:23.331Z,0
2017-02-16T02:12:24.035Z,0
2017-02-16T02:13:24.729Z,0
2017-02-16T02:14:25.454Z,0
2017-02-16T02:15:26.170Z,0
2017-02-16T02:16:26.891Z,0
2017-02-16T02:17:27.605Z,0
2017-02-16T02:18:28.308Z,0
2017-02-16T02:19:29.019Z,0
2017-02-16T02:20:29.730Z,0
2017-02-16T02:21:30.431Z,0
2017-02-16T02:22:31.177Z,0
2017-02-16T02:23:31.866Z,0
2017-02-16T02:24:32.614Z,0
2017-02-16T02:25:33.352Z,0
2017-02-16T02:26:34.049Z,0
2017-02-16T02:27:34.757Z,0
2017-02-16T02:28:35.460Z,0
2017-02-16T02:29:36.170Z,0
2017-02-16T02:30:36.890Z,0
2017-02-16T02:31:37.628Z,0
2017-02-16T02:32:38.293Z,0
2017-02-16T02:33:38.989Z,0
2017-02-16T02:34:39.829Z,0
2017-02-16T02:35:40.538Z,0
2017-02-16T02:36:41.246Z,0
2017-02-16T02:37:41.950Z,0
2017-02-16T02:38:42.643Z,0
2017-02-16T02:39:43.372Z,0
2017-02-16T02:40:44.048Z,0
2017-02-16T02:41:44.719Z,0
2017-02-16T02:42:45.416Z,0
2017-02-16T02:43:46.118Z,0
2017-02-16T02:44:46.830Z,0
2017-02-16T02:45:47.512Z,0
2017-02-16T02:46:48.216Z,0
2017-02-16T02:47:48.905Z,0
2017-02-16T02:48:49.732Z,0
2017-02-16T02:49:50.442Z,0
2017-02-16T02:50:51.142Z,0
2017-02-16T02:51:51.851Z,0
2017-02-16T02:52:52.551Z,0
2017-02-16T02:53:53.272Z,0
2017-02-16T02:54:53.974Z,0
2017-02-16T02:55:54.689Z,0
2017-02-16T02:56:55.415Z,0
2017-02-16T02:57:56.136Z,0
2017-02-16T02:58:56.843Z,0
2017-02-16T02:59:57.532Z,0
2017-02-16T03:00:58.251Z,0
2017-02-16T03:01:58.961Z,0
2017-02-16T03:02:59.712Z,0
2017-02-16T03:04:00.448Z,0
2017-02-16T03:05:01.154Z,0
2017-02-16T03:06:01.908Z,0
2017-02-16T03:07:02.619Z,0
2017-02-16T03:08:03.349Z,0
2017-02-16T03:09:04.076Z,0
2017-02-16T03:10:04.798Z,0
2017-02-16T03:11:05.514Z,0
2017-02-16T03:12:06.221Z,0
2017-02-16T03:13:06.947Z,0
2017-02-16T03:14:07.659Z,0
2017-02-16T03:15:08.392Z,0
2017-02-16T03:16:09.087Z,0
2017-02-16T03:17:09.775Z,0
2017-02-16T03:18:10.501Z,0
2017-02-16T03:19:11.219Z,0
2017-02-16T03:20:11.935Z,0
2017-02-16T03:21:12.630Z,0
2017-02-16T03:22:13.356Z,0
2017-02-16T03:23:14.049Z,0
2017-02-16T03:24:14.765Z,0
2017-02-16T03:25:15.447Z,0
2017-02-16T03:26:16.156Z,0
2017-02-16T03:27:16.851Z,0
2017-02-16T03:28:17.560Z,0
2017-02-16T03:29:18.244Z,0
2017-02-16T03:30:18.949Z,0
2017-02-16T03:31:19.652Z,0
2017-02-16T03:32:20.364Z,0
2017-02-16T03:33:21.084Z,0
2017-02-16T03:34:21.796Z,0
2017-02-16T03:35:22.531Z,0
2017-02-16T03:36:23.235Z,0
2017-02-16T03:37:23.936Z,0
2017-02-16T03:38:24.638Z,0
2017-02-16T03:39:25.331Z,0
2017-02-16T03:40:26.064Z,0
2017-02-16T03:41:26.773Z,0
2017-02-16T03:42:27.465Z,0
2017-02-16T03:43:28.175Z,0
2017-02-16T03:44:28.928Z,0
2017-02-16T03:45:29.647Z,0
2017-02-16T03:46:30.354Z,0
2017-02-16T03:47:31.065Z,0
2017-02-16T03:48:31.776Z,0
2017-02-16T03:49:32.499Z,0
2017-02-16T03:50:33.172Z,0
2017-02-16T03:51:33.898Z,0
2017-02-16T03:52:34.619Z,0
2017-02-16T03:53:35.340Z,0
2017-02-16T03:54:36.062Z,0
2017-02-16T03:55:36.778Z,0
2017-02-16T03:56:37.508Z,0
2017-02-16T03:57:38.225Z,0
2017-02-16T03:58:38.951Z,0
2017-02-16T03:59:39.658Z,0
2017-02-16T04:00:40.357Z,0
2017-02-16T04:01:41.071Z,0
2017-02-16T04:02:41.754Z,0
2017-02-16T04:03:42.473Z,0
2017-02-16T04:04:43.272Z,0
2017-02-16T04:05:43.969Z,0
2017-02-16T04:06:44.700Z,0
2017-02-16T04:07:45.420Z,0
2017-02-16T04:08:46.101Z,0
2017-02-16T04:09:46.801Z,0
2017-02-16T04:10:47.505Z,0
2017-02-16T04:11:48.208Z,0
2017-02-16T04:12:48.922Z,0
2017-02-16T04:13:49.635Z,0
2017-02-16T04:14:50.344Z,0
2017-02-16T04:15:51.076Z,0
2017-02-16T04:16:51.775Z,0
2017-02-16T04:17:52.550Z,0
2017-02-16T04:18:53.268Z,0
2017-02-16T04:19:53.984Z,0
2017-02-16T04:20:54.760Z,0
2017-02-16T04:21:55.470Z,0
2017-02-16T04:22:56.350Z,0
2017-02-16T04:23:57.053Z,0
2017-02-16T04:24:57.758Z,0
2017-02-16T04:25:58.491Z,0
2017-02-16T04:26:59.187Z,0
2017-02-16T04:28:00.604Z,0
2017-02-16T04:29:01.686Z,0
2017-02-16T04:30:02.402Z,0
2017-02-16T04:31:03.853Z,0
2017-02-16T04:32:04.596Z,0
2017-02-16T04:33:05.310Z,0
2017-02-16T04:34:06.056Z,0
2017-02-16T04:35:06.763Z,0
2017-02-16T04:36:07.791Z,0
2017-02-16T04:37:08.514Z,0
2017-02-16T04:38:09.236Z,0
2017-02-16T04:39:09.950Z,0
2017-02-16T04:40:10.685Z,0
2017-02-16T04:41:11.386Z,0
2017-02-16T04:42:12.141Z,0
2017-02-16T04:43:12.854Z,0
2017-02-16T04:44:13.564Z,0
2017-02-16T04:45:14.291Z,0
2017-02-16T04:46:14.982Z,0
2017-02-16T04:47:15.751Z,0
2017-02-16T04:48:16.419Z,0
2017-02-16T04:49:17.116Z,0
2017-02-16T04:50:17.945Z,0
2017-02-16T04:51:18.684Z,0
2017-02-16T04:52:19.394Z,0
2017-02-16T04:53:20.123Z,0
2017-02-16T04:54:21.012Z,0
2017-02-16T04:55:21.733Z,0
2017-02-16T04:56:22.451Z,0
2017-02-16T04:57:23.132Z,0
2017-02-16T04:58:23.865Z,0
2017-02-16T04:59:24.583Z,0
2017-02-16T05:00:25.279Z,0
2017-02-16T05:01:25.971Z,0
2017-02-16T05:02:26.692Z,0
2017-02-16T05:03:27.418Z,0
2017-02-16T05:04:28.162Z,0
2017-02-16T05:05:28.865Z,0
2017-02-16T05:06:30.869Z,0
2017-02-16T05:07:32.995Z,0
2017-02-16T05:08:33.865Z,0
2017-02-16T05:09:34.562Z,0
2017-02-16T05:10:35.299Z,0
2017-02-16T05:11:35.982Z,0
2017-02-16T05:12:36.693Z,0
2017-02-16T05:13:37.380Z,0
2017-02-16T05:14:38.088Z,0
2017-02-16T05:15:38.795Z,0
2017-02-16T05:16:39.554Z,0
2017-02-16T05:17:40.260Z,0
2017-02-16T05:18:40.969Z,0
2017-02-16T05:19:41.663Z,0
2017-02-16T05:20:42.374Z,0
2017-02-16T05:21:43.051Z,0
2017-02-16T05:22:43.752Z,0
2017-02-16T05:23:44.455Z,0
2017-02-16T05:24:45.199Z,0
2017-02-16T05:25:45.878Z,0
2017-02-16T05:26:46.613Z,0
2017-02-16T05:27:47.339Z,0
2017-02-16T05:28:48.101Z,0
2017-02-16T05:29:48.825Z,0
2017-02-16T05:30:49.540Z,0
2017-02-16T05:31:50.281Z,0
2017-02-16T05:32:51.020Z,0
2017-02-16T05:33:51.735Z,0
2017-02-16T05:34:52.453Z,0
2017-02-16T05:35:53.174Z,0
2017-02-16T05:36:53.865Z,0
2017-02-16T05:37:54.590Z,0
2017-02-16T05:38:55.298Z,0
2017-02-16T05:39:56.022Z,0
2017-02-16T05:40:56.725Z,0
2017-02-16T05:41:57.449Z,0
2017-02-16T05:42:58.143Z,0
2017-02-16T05:43:58.854Z,0
2017-02-16T05:44:59.565Z,0
2017-02-16T05:46:00.285Z,0
2017-02-16T05:47:00.977Z,0
2017-02-16T05:48:01.676Z,0
2017-02-16T05:49:02.390Z,0
2017-02-16T05:50:03.097Z,0
2017-02-16T05:51:03.818Z,0
2017-02-16T05:52:04.534Z,0
2017-02-16T05:53:05.260Z,0
2017-02-16T05:54:05.959Z,0
2017-02-16T05:55:06.632Z,0
2017-02-16T05:56:07.342Z,0
2017-02-16T05:57:08.051Z,0
2017-02-16T05:58:08.743Z,4
2017-02-16T05:59:09.444Z,0
2017-02-16T06:00:10.159Z,0
2017-02-16T06:01:10.837Z,4
2017-02-16T06:02:11.517Z,0
2017-02-16T06:03:12.252Z,4
2017-02-16T06:04:12.960Z,4
2017-02-16T06:05:13.658Z,8
2017-02-16T06:06:14.389Z,8
2017-02-16T06:07:15.079Z,8
2017-02-16T06:08:15.782Z,8
2017-02-16T06:09:16.546Z,8
2017-02-16T06:10:17.263Z,12
2017-02-16T06:11:18.043Z,12
2017-02-16T06:12:18.772Z,16
2017-02-16T06:13:19.494Z,16
2017-02-16T06:14:20.230Z,24
2017-02-16T06:15:20.960Z,24
2017-02-16T06:16:21.661Z,28
2017-02-16T06:17:22.363Z,32
2017-02-16T06:18:23.071Z,40
2017-02-16T06:19:23.806Z,48
2017-02-16T06:20:24.510Z,52
2017-02-16T06:21:25.219Z,60
2017-02-16T06:22:25.923Z,72
2017-02-16T06:23:26.653Z,84
2017-02-16T06:24:27.366Z,96
2017-02-16T06:25:28.095Z,112
2017-02-16T06:26:28.795Z,124
2017-02-16T06:27:29.500Z,144
2017-02-16T06:28:30.208Z,164
2017-02-16T06:29:30.935Z,180
2017-02-16T06:30:31.642Z,204
2017-02-16T06:31:32.345Z,228
2017-02-16T06:32:33.108Z,256
2017-02-16T06:33:33.835Z,276
2017-02-16T06:34:34.562Z,304
2017-02-16T06:35:35.285Z,336
2017-02-16T06:36:35.968Z,372
2017-02-16T06:37:36.682Z,416
2017-02-16T06:38:37.397Z,456
2017-02-16T06:39:38.132Z,504
2017-02-16T06:40:38.845Z,536
2017-02-16T06:41:39.565Z,576
2017-02-16T06:42:40.299Z,620
2017-02-16T06:43:41.016Z,672
2017-02-16T06:44:41.734Z,720
2017-02-16T06:45:42.414Z,772
2017-02-16T06:46:43.108Z,820
2017-02-16T06:47:43.824Z,872
2017-02-16T06:48:44.595Z,916
2017-02-16T06:49:45.314Z,956
2017-02-16T06:50:46.031Z,1004
2017-02-16T06:51:46.755Z,1052
2017-02-16T06:52:47.484Z,1112
2017-02-16T06:53:48.203Z,1168
2017-02-16T06:54:48.936Z,1232
2017-02-16T06:55:49.660Z,1288
2017-02-16T06:56:50.374Z,1332
2017-02-16T06:57:51.087Z,1380
2017-02-16T06:58:51.811Z,1412
2017-02-16T06:59:52.531Z,1456
2017-02-16T07:00:53.261Z,1484
2017-02-16T07:01:53.946Z,1520
2017-02-16T07:02:54.667Z,1572
2017-02-16T07:03:55.390Z,1628
2017-02-16T07:04:56.098Z,1676
2017-02-16T07:05:56.797Z,1728
2017-02-16T07:06:57.501Z,1772
2017-02-16T07:07:58.178Z,1848
2017-02-16T07:08:58.867Z,1928
2017-02-16T07:09:59.567Z,2020
2017-02-16T07:11:00.288Z,2116
2017-02-16T07:12:01.015Z,2212
2017-02-16T07:13:01.739Z,2320
2017-02-16T07:14:02.453Z,2460
2017-02-16T07:15:03.162Z,2600
2017-02-16T07:16:03.873Z,2732
2017-02-16T07:17:04.592Z,2864
2017-02-16T07:18:05.304Z,2944
2017-02-16T07:19:06.006Z,3024
2017-02-16T07:20:06.723Z,3108
2017-02-16T07:21:07.439Z,3148
2017-02-16T07:22:08.153Z,3068
2017-02-16T07:23:08.875Z,3080
2017-02-16T07:24:09.589Z,3028
2017-02-16T07:25:10.316Z,3172
2017-02-16T07:26:11.053Z,3128
2017-02-16T07:27:11.782Z,2892
2017-02-16T07:28:12.488Z,2772
2017-02-16T07:29:13.206Z,2728
2017-02-16T07:30:13.932Z,2964
2017-02-16T07:31:14.625Z,2932
2017-02-16T07:32:15.330Z,3148
2017-02-16T07:33:16.046Z,2976
2017-02-16T07:34:16.798Z,3312
2017-02-16T07:35:17.534Z,3436
2017-02-16T07:36:18.266Z,3468
2017-02-16T07:37:18.962Z,3460
2017-02-16T07:38:19.679Z,3444
2017-02-16T07:39:20.400Z,3452
2017-02-16T07:40:21.119Z,3556
2017-02-16T07:41:21.825Z,3256
2017-02-16T07:42:22.531Z,3152
2017-02-16T07:43:23.233Z,3104
2017-02-16T07:44:23.941Z,3108
2017-02-16T07:45:24.681Z,2860
2017-02-16T07:46:25.384Z,2496
2017-02-16T07:47:26.134Z,2400
2017-02-16T07:48:26.868Z,2516
2017-02-16T07:49:27.599Z,2680
2017-02-16T07:50:28.313Z,2712
2017-02-16T07:51:29.027Z,4240
2017-02-16T07:52:29.724Z,5664
2017-02-16T07:53:30.494Z,7100
2017-02-16T07:54:31.206Z,6384
2017-02-16T07:55:31.928Z,6372
2017-02-16T07:56:32.623Z,7036
2017-02-16T07:57:33.383Z,7852
2017-02-16T07:58:34.172Z,6904
2017-02-16T07:59:34.906Z,7324
2017-02-16T08:00:35.646Z,7588
2017-02-16T08:01:36.372Z,7892
2017-02-16T08:02:37.077Z,7556
2017-02-16T08:03:37.822Z,7856
2017-02-16T08:04:38.564Z,7916
2017-02-16T08:05:39.286Z,8740
2017-02-16T08:06:40.015Z,9056
2017-02-16T08:07:40.734Z,8980
2017-02-16T08:08:41.440Z,7456
2017-02-16T08:09:42.204Z,7020
2017-02-16T08:10:42.950Z,7992
2017-02-16T08:11:43.725Z,7584
2017-02-16T08:12:44.449Z,7596
2017-02-16T08:13:45.208Z,8024
2017-02-16T08:14:45.964Z,8512
2017-02-16T08:15:46.669Z,6744
2017-02-16T08:16:47.426Z,5932
2017-02-16T08:17:48.145Z,6132
2017-02-16T08:18:48.897Z,5856
2017-02-16T08:19:49.610Z,6744
2017-02-16T08:20:50.321Z,7396
2017-02-16T08:21:51.045Z,6808
2017-02-16T08:22:51.752Z,5260
2017-02-16T08:23:52.516Z,4668
2017-02-16T08:24:53.257Z,4744
2017-02-16T08:25:53.986Z,4548
2017-02-16T08:26:54.736Z,4216
2017-02-16T08:27:55.485Z,4172
2017-02-16T08:28:56.253Z,4164
2017-02-16T08:29:57.001Z,4260
2017-02-16T08:30:57.743Z,5372
2017-02-16T08:31:58.502Z,5668
2017-02-16T08:32:59.221Z,5052
2017-02-16T08:34:00.095Z,5096
2017-02-16T08:35:00.825Z,5456
2017-02-16T08:36:01.552Z,5808
2017-02-16T08:37:02.309Z,5840
2017-02-16T08:38:03.057Z,5124
2017-02-16T08:39:03.801Z,5036
2017-02-16T08:40:04.518Z,5064
2017-02-16T08:41:05.244Z,4932
2017-02-16T08:42:05.990Z,5264
2017-02-16T08:43:06.705Z,6808
2017-02-16T08:44:07.475Z,5712
2017-02-16T08:45:08.191Z,7648
2017-02-16T08:46:08.905Z,6012
2017-02-16T08:47:09.608Z,5948
2017-02-16T08:48:10.331Z,5132
2017-02-16T08:49:11.088Z,4924
2017-02-16T08:50:11.811Z,4972
2017-02-16T08:51:12.545Z,4916
2017-02-16T08:52:13.249Z,5588
2017-02-16T08:53:13.972Z,11032
2017-02-16T08:54:14.694Z,15264
2017-02-16T08:55:15.426Z,14876
2017-02-16T08:56:16.171Z,16640
2017-02-16T08:57:16.902Z,16832
2017-02-16T08:58:17.637Z,16384
2017-02-16T08:59:18.350Z,16832
2017-02-16T09:00:19.086Z,16800
2017-02-16T09:01:19.828Z,17600
2017-02-16T09:02:20.594Z,18016
2017-02-16T09:03:21.305Z,17504
2017-02-16T09:04:22.004Z,16864
2017-02-16T09:05:22.761Z,14024
2017-02-16T09:06:23.472Z,15968
2017-02-16T09:07:24.173Z,15584
2017-02-16T09:08:24.915Z,16768
2017-02-16T09:09:25.625Z,17408
2017-02-16T09:10:26.347Z,18880
2017-02-16T09:11:27.066Z,20128
2017-02-16T09:12:27.788Z,20768
2017-02-16T09:13:28.517Z,20960
2017-02-16T09:14:29.239Z,19712
2017-02-16T09:15:29.973Z,11332
2017-02-16T09:16:30.705Z,5468
2017-02-16T09:17:31.451Z,5256
2017-02-16T09:18:32.195Z,5020
2017-02-16T09:19:32.986Z,5160
2017-02-16T09:20:33.793Z,4988
2017-02-16T09:21:34.552Z,4820
2017-02-16T09:22:35.301Z,4996
2017-02-16T09:23:36.054Z,5184
2017-02-16T09:24:36.805Z,5424
2017-02-16T09:25:37.557Z,5432
2017-02-16T09:26:38.283Z,5608
2017-02-16T09:27:39.042Z,5852
2017-02-16T09:28:39.766Z,5724
2017-02-16T09:29:40.458Z,5728
2017-02-16T09:30:41.173Z,5560
2017-02-16T09:31:41.924Z,5724
2017-02-16T09:32:42.637Z,5564
2017-02-16T09:33:43.375Z,5460
2017-02-16T09:34:44.081Z,4860
2017-02-16T09:35:44.798Z,5196
2017-02-16T09:36:45.568Z,5292
2017-02-16T09:37:46.280Z,5160
2017-02-16T09:38:47.018Z,5228
2017-02-16T09:39:47.755Z,5208
2017-02-16T09:40:48.490Z,5708
2017-02-16T09:41:49.203Z,5908
2017-02-16T09:42:49.964Z,6108
2017-02-16T09:43:50.774Z,6412
2017-02-16T09:44:51.551Z,6384
2017-02-16T09:45:52.264Z,6400
2017-02-16T09:46:52.977Z,6432
2017-02-16T09:47:53.705Z,6360
2017-02-16T09:48:54.476Z,6188
2017-02-16T09:49:55.216Z,6200
2017-02-16T09:50:56.008Z,6076
2017-02-16T09:51:56.805Z,6136
2017-02-16T09:52:57.569Z,6004
2017-02-16T09:53:58.295Z,6240
2017-02-16T09:54:59.807Z,6140
2017-02-16T09:56:00.542Z,5964
2017-02-16T09:57:01.266Z,5948
2017-02-16T09:58:01.999Z,5976
2017-02-16T09:59:02.727Z,6008
2017-02-16T10:00:03.436Z,6044
2017-02-16T10:01:04.155Z,6388
2017-02-16T10:02:04.918Z,6184
2017-02-16T10:03:05.663Z,6288
2017-02-16T10:04:06.399Z,6336
2017-02-16T10:05:07.124Z,6280
2017-02-16T10:06:07.966Z,6164
2017-02-16T10:07:08.714Z,6172
2017-02-16T10:08:09.451Z,5844
2017-02-16T10:09:10.209Z,5736
2017-02-16T10:10:11.008Z,5548
2017-02-16T10:11:11.729Z,5396
2017-02-16T10:12:12.487Z,5332
2017-02-16T10:13:13.255Z,5428
2017-02-16T10:14:13.959Z,5448
2017-02-16T10:15:14.734Z,5544
2017-02-16T10:16:15.501Z,5572
2017-02-16T10:17:16.227Z,5800
2017-02-16T10:18:16.982Z,5488
2017-02-16T10:19:17.730Z,5532
2017-02-16T10:20:18.494Z,5260
2017-02-16T10:21:19.207Z,5388
2017-02-16T10:22:19.951Z,5524
2017-02-16T10:23:20.814Z,5800
2017-02-16T10:24:21.622Z,5752
2017-02-16T10:25:22.470Z,5764
2017-02-16T10:26:23.323Z,6140
2017-02-16T10:27:24.051Z,6128
2017-02-16T10:28:24.791Z,6004
2017-02-16T10:29:25.543Z,5956
2017-02-16T10:30:26.353Z,5800
2017-02-16T10:31:27.209Z,5980
2017-02-16T10:32:27.978Z,6188
2017-02-16T10:33:28.736Z,6292
2017-02-16T10:34:29.509Z,6164
2017-02-16T10:35:30.326Z,5788
2017-02-16T10:36:31.211Z,5584
2017-02-16T10:37:32.020Z,5756
2017-02-16T10:38:32.785Z,5564
2017-02-16T10:39:33.536Z,5352
2017-02-16T10:40:34.279Z,5236
2017-02-16T10:41:35.137Z,5708
2017-02-16T10:42:35.902Z,5716
2017-02-16T10:43:36.627Z,5636
2017-02-16T10:44:37.378Z,5616
2017-02-16T10:45:38.142Z,5544
2017-02-16T10:46:38.888Z,5508
2017-02-16T10:47:39.711Z,5496
2017-02-16T10:48:40.573Z,5536
2017-02-16T10:49:41.417Z,5248
2017-02-16T10:50:42.361Z,5304
2017-02-16T10:51:43.122Z,5164
2017-02-16T10:52:43.923Z,5192
2017-02-16T10:53:44.717Z,4980
2017-02-16T10:54:45.516Z,5040
2017-02-16T10:55:46.267Z,5192
2017-02-16T10:56:47.035Z,5404
2017-02-16T10:57:47.946Z,5680
2017-02-16T10:58:48.607Z,5884
2017-02-16T10:59:49.334Z,5972
2017-02-16T11:00:50.187Z,5752
2017-02-16T11:01:50.948Z,5532
2017-02-16T11:02:51.795Z,5528
2017-02-16T11:03:52.609Z,5448
2017-02-16T11:04:53.542Z,5368
2017-02-16T11:05:54.403Z,5356
2017-02-16T11:06:55.145Z,5652
2017-02-16T11:07:55.890Z,5780
2017-02-16T11:08:56.594Z,5692
2017-02-16T11:09:57.335Z,5788
2017-02-16T11:10:58.050Z,6120
2017-02-16T11:11:58.758Z,5932
2017-02-16T11:12:59.474Z,5772
2017-02-16T11:14:00.205Z,5724
2017-02-16T11:15:00.941Z,5888
2017-02-16T11:16:01.678Z,6076
2017-02-16T11:17:02.403Z,6396
2017-02-16T11:18:03.131Z,6588
2017-02-16T11:19:03.837Z,6892
2017-02-16T11:20:04.682Z,6660
2017-02-16T11:21:05.398Z,7192
2017-02-16T11:22:06.127Z,7420
2017-02-16T11:23:06.847Z,6364
2017-02-16T11:24:07.573Z,7036
2017-02-16T11:25:08.288Z,6832
2017-02-16T11:26:09.011Z,6828
2017-02-16T11:27:09.735Z,6876
2017-02-16T11:28:10.447Z,7592
2017-02-16T11:29:11.146Z,6248
2017-02-16T11:30:11.864Z,7128
2017-02-16T11:31:12.587Z,7560
2017-02-16T11:32:13.343Z,7188
2017-02-16T11:33:14.104Z,7716
2017-02-16T11:34:14.869Z,6588
2017-02-16T11:35:15.562Z,7260
2017-02-16T11:36:16.279Z,6780
2017-02-16T11:37:17.006Z,7584
2017-02-16T11:38:17.732Z,6592
2017-02-16T11:39:18.453Z,6332
2017-02-16T11:40:19.167Z,6648
2017-02-16T11:41:19.906Z,6568
2017-02-16T11:42:20.621Z,6672
2017-02-16T11:43:21.361Z,7044
2017-02-16T11:44:22.084Z,6792
2017-02-16T11:45:22.803Z,8224
2017-02-16T11:46:23.523Z,7200
2017-02-16T11:47:24.232Z,7388
2017-02-16T11:48:24.970Z,6920
2017-02-16T11:49:25.712Z,8220
2017-02-16T11:50:26.453Z,7120
2017-02-16T11:51:27.204Z,9584
2017-02-16T11:52:27.924Z,9236
2017-02-16T11:53:28.642Z,9696
2017-02-16T11:54:29.375Z,9548
2017-02-16T11:55:30.139Z,9024
2017-02-16T11:56:30.866Z,9388
2017-02-16T11:57:31.594Z,10800
2017-02-16T11:58:32.349Z,10836
2017-02-16T11:59:33.077Z,11196
2017-02-16T12:00:33.802Z,10824
2017-02-16T12:01:34.541Z,10580
2017-02-16T12:02:36.092Z,10700
2017-02-16T12:03:36.892Z,9424
2017-02-16T12:04:37.575Z,9016
2017-02-16T12:05:38.299Z,8532
2017-02-16T12:06:39.029Z,8068
2017-02-16T12:07:39.772Z,8480
2017-02-16T12:08:40.497Z,8352
2017-02-16T12:09:41.231Z,9160
2017-02-16T12:10:41.951Z,8800
2017-02-16T12:11:42.670Z,8508
2017-02-16T12:12:43.396Z,8960
2017-02-16T12:13:44.116Z,9084
2017-02-16T12:14:44.871Z,9016
2017-02-16T12:15:45.624Z,8856
2017-02-16T12:16:46.432Z,8040
2017-02-16T12:17:47.137Z,7540
2017-02-16T12:18:47.886Z,7364
2017-02-16T12:19:48.614Z,7860
2017-02-16T12:20:49.321Z,7688
2017-02-16T12:21:50.037Z,6812
2017-02-16T12:22:50.786Z,7028
2017-02-16T12:23:51.504Z,6928
2017-02-16T12:24:52.256Z,6564
2017-02-16T12:25:52.981Z,6884
2017-02-16T12:26:53.709Z,6476
2017-02-16T12:27:54.439Z,7316
2017-02-16T12:28:55.184Z,5764
2017-02-16T12:29:55.891Z,5696
2017-02-16T12:30:56.620Z,6948
2017-02-16T12:31:57.356Z,6524
2017-02-16T12:32:58.076Z,6028
2017-02-16T12:33:58.811Z,6584
2017-02-16T12:34:59.523Z,6040
2017-02-16T12:36:00.243Z,6316
2017-02-16T12:37:00.982Z,7088
2017-02-16T12:38:01.703Z,6192
2017-02-16T12:39:02.503Z,6696
2017-02-16T12:40:03.240Z,6152
2017-02-16T12:41:03.959Z,5412
2017-02-16T12:42:04.711Z,6208
2017-02-16T12:43:05.465Z,6204
2017-02-16T12:44:06.219Z,6180
2017-02-16T12:45:07.034Z,6336
2017-02-16T12:46:07.734Z,5852
2017-02-16T12:47:08.528Z,6032
2017-02-16T12:48:09.226Z,6608
2017-02-16T12:49:09.952Z,6548
2017-02-16T12:50:10.677Z,6456
2017-02-16T12:51:11.411Z,6500
2017-02-16T12:52:12.143Z,5488
2017-02-16T12:53:12.946Z,6256
2017-02-16T12:54:13.709Z,7104
2017-02-16T12:55:14.445Z,7508
2017-02-16T12:56:15.173Z,7132
2017-02-16T12:57:15.892Z,6928
2017-02-16T12:58:16.751Z,6420
2017-02-16T12:59:17.499Z,6820
2017-02-16T13:00:18.262Z,7276
2017-02-16T13:01:18.958Z,7620
2017-02-16T13:02:19.665Z,7492
2017-02-16T13:03:20.401Z,7704
2017-02-16T13:04:21.177Z,7044
2017-02-16T13:05:21.930Z,7332
2017-02-16T13:06:22.722Z,8016
2017-02-16T13:07:23.474Z,7276
2017-02-16T13:08:24.227Z,8652
2017-02-16T13:09:24.940Z,8172
2017-02-16T13:10:25.704Z,8264
2017-02-16T13:11:26.460Z,8036
2017-02-16T13:12:27.208Z,7848
2017-02-16T13:13:27.985Z,6388
2017-02-16T13:14:28.712Z,6136
2017-02-16T13:15:29.483Z,6424
2017-02-16T13:16:30.187Z,5672
2017-02-16T13:17:30.982Z,5800
2017-02-16T13:18:31.735Z,6600
2017-02-16T13:19:32.515Z,5596
2017-02-16T13:20:33.304Z,5492
2017-02-16T13:21:34.058Z,6952
2017-02-16T13:22:34.791Z,5872
2017-02-16T13:23:35.526Z,4840
2017-02-16T13:24:36.239Z,4696
2017-02-16T13:25:36.980Z,6296
2017-02-16T13:26:37.743Z,5680
2017-02-16T13:27:38.543Z,5632
2017-02-16T13:28:39.268Z,5740
2017-02-16T13:29:40.024Z,4908
2017-02-16T13:30:40.769Z,4344
2017-02-16T13:31:41.497Z,4524
2017-02-16T13:32:42.208Z,5160
2017-02-16T13:33:42.952Z,5944
2017-02-16T13:34:43.691Z,5308
2017-02-16T13:35:44.397Z,5596
2017-02-16T13:36:45.126Z,5120
2017-02-16T13:37:45.833Z,5068
2017-02-16T13:38:46.573Z,4632
2017-02-16T13:39:47.266Z,5276
2017-02-16T13:40:47.986Z,5540
2017-02-16T13:41:48.698Z,4716
2017-02-16T13:42:49.409Z,4792
2017-02-16T13:43:50.139Z,4772
2017-02-16T13:44:50.858Z,5004
2017-02-16T13:45:51.602Z,5388
2017-02-16T13:46:52.338Z,5536
2017-02-16T13:47:53.089Z,5440
2017-02-16T13:48:53.819Z,5120
2017-02-16T13:49:54.552Z,5076
2017-02-16T13:50:55.296Z,5160
2017-02-16T13:51:55.999Z,4720
2017-02-16T13:52:56.796Z,4604
2017-02-16T13:53:57.526Z,4588
2017-02-16T13:54:58.253Z,4504
2017-02-16T13:55:58.975Z,4636
2017-02-16T13:56:59.718Z,4796
2017-02-16T13:58:00.432Z,4728
2017-02-16T13:59:01.146Z,4696
2017-02-16T14:00:01.859Z,4820
2017-02-16T14:01:02.593Z,4752
2017-02-16T14:02:03.331Z,4596
2017-02-16T14:03:04.056Z,4496
2017-02-16T14:04:04.835Z,4460
2017-02-16T14:05:05.578Z,4400
2017-02-16T14:06:06.313Z,4364